sensor_id;sensor_type;location;lat;lon;timestamp;P1;durP1;ratioP1;P2;durP2;ratioP2
30052;SDS011;17074;52.478;13.534;2022-09-17T00:00:17;1.17;;;0.70;;
30052;SDS011;17074;52.478;13.534;2022-09-17T00:02:43;2.00;;;0.95;;
30052;SDS011;17074;52.478;13.534;2022-09-17T00:05:11;2.42;;;0.90;;
30052;SDS011;17074;52.478;13.534;2022-09-17T00:07:36;3.22;;;1.00;;
30052;SDS011;17074;52.478;13.534;2022-09-17T00:10:02;2.72;;;0.80;;
30052;SDS011;17074;52.478;13.534;2022-09-17T00:12:28;2.80;;;0.90;;
30052;SDS011;17074;52.478;13.534;2022-09-17T00:14:55;3.38;;;1.13;;
30052;SDS011;17074;52.478;13.534;2022-09-17T00:17:21;3.38;;;0.98;;
30052;SDS011;17074;52.478;13.534;2022-09-17T00:19:47;2.40;;;0.95;;
30052;SDS011;17074;52.478;13.534;2022-09-17T00:22:13;1.45;;;0.63;;
30052;SDS011;17074;52.478;13.534;2022-09-17T00:24:39;5.03;;;1.40;;
30052;SDS011;17074;52.478;13.534;2022-09-17T00:27:05;8.27;;;1.30;;
30052;SDS011;17074;52.478;13.534;2022-09-17T00:29:31;1.67;;;0.85;;
30052;SDS011;17074;52.478;13.534;2022-09-17T00:31:56;3.65;;;0.93;;
30052;SDS011;17074;52.478;13.534;2022-09-17T00:34:22;5.63;;;1.02;;
30052;SDS011;17074;52.478;13.534;2022-09-17T00:36:48;4.38;;;1.20;;
30052;SDS011;17074;52.478;13.534;2022-09-17T00:39:13;8.23;;;1.58;;
30052;SDS011;17074;52.478;13.534;2022-09-17T00:41:40;3.17;;;1.05;;
30052;SDS011;17074;52.478;13.534;2022-09-17T00:47:25;1.80;;;0.90;;
30052;SDS011;17074;52.478;13.534;2022-09-17T00:52:54;3.85;;;0.85;;
30052;SDS011;17074;52.478;13.534;2022-09-17T00:55:29;3.90;;;1.13;;
30052;SDS011;17074;52.478;13.534;2022-09-17T00:57:58;3.15;;;1.00;;
30052;SDS011;17074;52.478;13.534;2022-09-17T01:00:27;2.63;;;0.98;;
30052;SDS011;17074;52.478;13.534;2022-09-17T01:02:54;2.92;;;1.33;;
30052;SDS011;17074;52.478;13.534;2022-09-17T01:05:30;1.48;;;0.73;;
30052;SDS011;17074;52.478;13.534;2022-09-17T01:17:03;4.22;;;1.00;;
30052;SDS011;17074;52.478;13.534;2022-09-17T01:18:59;3.72;;;0.70;;
30052;SDS011;17074;52.478;13.534;2022-09-17T01:21:47;3.40;;;0.80;;
30052;SDS011;17074;52.478;13.534;2022-09-17T01:35:38;1.70;;;1.00;;
30052;SDS011;17074;52.478;13.534;2022-09-17T01:38:26;6.32;;;1.05;;
30052;SDS011;17074;52.478;13.534;2022-09-17T01:43:48;3.67;;;1.08;;
30052;SDS011;17074;52.478;13.534;2022-09-17T01:46:31;2.17;;;0.90;;
30052;SDS011;17074;52.478;13.534;2022-09-17T01:49:05;2.38;;;0.85;;
30052;SDS011;17074;52.478;13.534;2022-09-17T01:51:35;3.78;;;1.10;;
30052;SDS011;17074;52.478;13.534;2022-09-17T01:54:49;2.85;;;1.10;;
30052;SDS011;17074;52.478;13.534;2022-09-17T01:57:11;4.05;;;1.17;;
30052;SDS011;17074;52.478;13.534;2022-09-17T02:08:04;4.32;;;1.13;;
30052;SDS011;17074;52.478;13.534;2022-09-17T02:10:39;3.17;;;1.10;;
30052;SDS011;17074;52.478;13.534;2022-09-17T02:13:17;3.78;;;1.00;;
30052;SDS011;17074;52.478;13.534;2022-09-17T02:15:56;4.78;;;1.15;;
30052;SDS011;17074;52.478;13.534;2022-09-17T02:18:39;6.72;;;1.20;;
30052;SDS011;17074;52.478;13.534;2022-09-17T02:22:27;2.63;;;0.88;;
30052;SDS011;17074;52.478;13.534;2022-09-17T02:24:43;4.03;;;1.13;;
30052;SDS011;17074;52.478;13.534;2022-09-17T02:27:40;1.70;;;0.90;;
30052;SDS011;17074;52.478;13.534;2022-09-17T02:30:27;3.70;;;1.23;;
30052;SDS011;17074;52.478;13.534;2022-09-17T02:32:54;1.15;;;0.82;;
30052;SDS011;17074;52.478;13.534;2022-09-17T02:35:20;1.98;;;1.00;;
30052;SDS011;17074;52.478;13.534;2022-09-17T02:37:46;4.97;;;1.52;;
30052;SDS011;17074;52.478;13.534;2022-09-17T02:40:12;5.88;;;1.42;;
30052;SDS011;17074;52.478;13.534;2022-09-17T02:51:09;3.72;;;1.02;;
30052;SDS011;17074;52.478;13.534;2022-09-17T03:04:38;4.05;;;1.42;;
30052;SDS011;17074;52.478;13.534;2022-09-17T03:07:05;5.22;;;1.42;;
30052;SDS011;17074;52.478;13.534;2022-09-17T03:09:39;4.93;;;1.33;;
30052;SDS011;17074;52.478;13.534;2022-09-17T03:12:07;5.07;;;1.65;;
30052;SDS011;17074;52.478;13.534;2022-09-17T03:14:33;3.00;;;1.15;;
30052;SDS011;17074;52.478;13.534;2022-09-17T03:16:59;3.72;;;1.08;;
30052;SDS011;17074;52.478;13.534;2022-09-17T03:19:25;3.05;;;1.15;;
30052;SDS011;17074;52.478;13.534;2022-09-17T03:21:51;6.20;;;1.40;;
30052;SDS011;17074;52.478;13.534;2022-09-17T03:24:17;6.32;;;1.42;;
30052;SDS011;17074;52.478;13.534;2022-09-17T03:26:43;6.45;;;1.40;;
30052;SDS011;17074;52.478;13.534;2022-09-17T03:29:11;2.75;;;1.23;;
30052;SDS011;17074;52.478;13.534;2022-09-17T03:31:37;6.72;;;1.23;;
30052;SDS011;17074;52.478;13.534;2022-09-17T03:34:02;4.43;;;1.17;;
30052;SDS011;17074;52.478;13.534;2022-09-17T03:36:28;4.22;;;1.35;;
30052;SDS011;17074;52.478;13.534;2022-09-17T03:38:57;3.88;;;1.58;;
30052;SDS011;17074;52.478;13.534;2022-09-17T03:41:23;7.65;;;1.75;;
30052;SDS011;17074;52.478;13.534;2022-09-17T03:43:49;6.85;;;1.70;;
30052;SDS011;17074;52.478;13.534;2022-09-17T03:46:15;6.60;;;1.17;;
30052;SDS011;17074;52.478;13.534;2022-09-17T03:48:41;6.45;;;1.92;;
30052;SDS011;17074;52.478;13.534;2022-09-17T03:51:06;4.78;;;1.30;;
30052;SDS011;17074;52.478;13.534;2022-09-17T03:53:32;3.72;;;1.00;;
30052;SDS011;17074;52.478;13.534;2022-09-17T03:56:01;4.47;;;1.42;;
30052;SDS011;17074;52.478;13.534;2022-09-17T03:58:28;8.02;;;1.40;;
30052;SDS011;17074;52.478;13.534;2022-09-17T04:00:54;3.97;;;1.40;;
30052;SDS011;17074;52.478;13.534;2022-09-17T04:03:22;2.47;;;1.30;;
30052;SDS011;17074;52.478;13.534;2022-09-17T04:05:49;6.50;;;1.27;;
30052;SDS011;17074;52.478;13.534;2022-09-17T04:08:14;5.70;;;1.10;;
30052;SDS011;17074;52.478;13.534;2022-09-17T04:10:40;3.65;;;1.10;;
30052;SDS011;17074;52.478;13.534;2022-09-17T04:13:06;5.60;;;1.45;;
30052;SDS011;17074;52.478;13.534;2022-09-17T04:15:31;4.07;;;1.20;;
30052;SDS011;17074;52.478;13.534;2022-09-17T04:17:57;5.28;;;1.05;;
30052;SDS011;17074;52.478;13.534;2022-09-17T04:20:23;5.07;;;1.60;;
30052;SDS011;17074;52.478;13.534;2022-09-17T04:22:49;4.60;;;1.30;;
30052;SDS011;17074;52.478;13.534;2022-09-17T04:25:15;5.47;;;1.67;;
30052;SDS011;17074;52.478;13.534;2022-09-17T04:27:42;4.28;;;1.17;;
30052;SDS011;17074;52.478;13.534;2022-09-17T04:30:08;2.97;;;1.50;;
30052;SDS011;17074;52.478;13.534;2022-09-17T04:32:34;3.60;;;1.42;;
30052;SDS011;17074;52.478;13.534;2022-09-17T04:35:00;9.15;;;1.60;;
30052;SDS011;17074;52.478;13.534;2022-09-17T04:37:25;3.47;;;1.10;;
30052;SDS011;17074;52.478;13.534;2022-09-17T04:39:51;3.30;;;1.30;;
30052;SDS011;17074;52.478;13.534;2022-09-17T04:42:17;4.55;;;1.13;;
30052;SDS011;17074;52.478;13.534;2022-09-17T04:44:43;4.15;;;1.33;;
30052;SDS011;17074;52.478;13.534;2022-09-17T04:47:08;2.90;;;1.30;;
30052;SDS011;17074;52.478;13.534;2022-09-17T04:49:34;5.43;;;1.00;;
30052;SDS011;17074;52.478;13.534;2022-09-17T04:51:59;3.50;;;1.25;;
30052;SDS011;17074;52.478;13.534;2022-09-17T04:54:25;5.38;;;1.10;;
30052;SDS011;17074;52.478;13.534;2022-09-17T04:56:51;2.38;;;1.23;;
30052;SDS011;17074;52.478;13.534;2022-09-17T04:59:16;8.05;;;1.23;;
30052;SDS011;17074;52.478;13.534;2022-09-17T05:01:42;1.70;;;0.82;;
30052;SDS011;17074;52.478;13.534;2022-09-17T05:04:08;7.15;;;1.45;;
30052;SDS011;17074;52.478;13.534;2022-09-17T05:06:34;4.85;;;1.38;;
30052;SDS011;17074;52.478;13.534;2022-09-17T05:09:00;3.35;;;1.13;;
30052;SDS011;17074;52.478;13.534;2022-09-17T05:11:26;3.92;;;1.20;;
30052;SDS011;17074;52.478;13.534;2022-09-17T05:13:52;5.45;;;1.38;;
30052;SDS011;17074;52.478;13.534;2022-09-17T05:16:18;3.40;;;1.08;;
30052;SDS011;17074;52.478;13.534;2022-09-17T05:18:44;5.53;;;1.10;;
30052;SDS011;17074;52.478;13.534;2022-09-17T05:21:10;3.85;;;1.55;;
30052;SDS011;17074;52.478;13.534;2022-09-17T05:23:35;2.97;;;1.20;;
30052;SDS011;17074;52.478;13.534;2022-09-17T05:26:01;6.50;;;1.25;;
30052;SDS011;17074;52.478;13.534;2022-09-17T05:28:27;3.42;;;1.20;;
30052;SDS011;17074;52.478;13.534;2022-09-17T05:30:53;4.22;;;1.20;;
30052;SDS011;17074;52.478;13.534;2022-09-17T05:33:18;8.82;;;1.60;;
30052;SDS011;17074;52.478;13.534;2022-09-17T05:35:44;3.75;;;1.30;;
30052;SDS011;17074;52.478;13.534;2022-09-17T05:38:10;5.13;;;1.27;;
30052;SDS011;17074;52.478;13.534;2022-09-17T05:40:36;4.80;;;1.73;;
30052;SDS011;17074;52.478;13.534;2022-09-17T05:43:03;4.90;;;1.45;;
30052;SDS011;17074;52.478;13.534;2022-09-17T05:45:31;5.32;;;1.20;;
30052;SDS011;17074;52.478;13.534;2022-09-17T05:47:58;6.35;;;1.38;;
30052;SDS011;17074;52.478;13.534;2022-09-17T05:50:26;6.28;;;1.42;;
30052;SDS011;17074;52.478;13.534;2022-09-17T05:52:52;6.35;;;1.60;;
30052;SDS011;17074;52.478;13.534;2022-09-17T05:55:20;5.35;;;1.33;;
30052;SDS011;17074;52.478;13.534;2022-09-17T05:57:47;2.58;;;1.30;;
30052;SDS011;17074;52.478;13.534;2022-09-17T06:00:13;4.10;;;1.42;;
30052;SDS011;17074;52.478;13.534;2022-09-17T06:02:39;3.85;;;1.00;;
30052;SDS011;17074;52.478;13.534;2022-09-17T06:05:05;5.10;;;1.25;;
30052;SDS011;17074;52.478;13.534;2022-09-17T06:07:31;6.38;;;1.60;;
30052;SDS011;17074;52.478;13.534;2022-09-17T06:10:03;1.95;;;0.98;;
30052;SDS011;17074;52.478;13.534;2022-09-17T06:12:30;2.88;;;1.17;;
30052;SDS011;17074;52.478;13.534;2022-09-17T06:14:56;4.25;;;1.08;;
30052;SDS011;17074;52.478;13.534;2022-09-17T06:17:21;4.95;;;1.63;;
30052;SDS011;17074;52.478;13.534;2022-09-17T06:19:47;5.85;;;1.50;;
30052;SDS011;17074;52.478;13.534;2022-09-17T06:22:12;4.85;;;1.42;;
30052;SDS011;17074;52.478;13.534;2022-09-17T06:24:38;6.50;;;1.30;;
30052;SDS011;17074;52.478;13.534;2022-09-17T06:27:04;5.75;;;1.40;;
30052;SDS011;17074;52.478;13.534;2022-09-17T06:29:29;4.00;;;1.17;;
30052;SDS011;17074;52.478;13.534;2022-09-17T06:31:55;5.82;;;2.03;;
30052;SDS011;17074;52.478;13.534;2022-09-17T06:34:20;6.75;;;1.45;;
30052;SDS011;17074;52.478;13.534;2022-09-17T06:36:47;6.07;;;1.92;;
30052;SDS011;17074;52.478;13.534;2022-09-17T06:39:13;6.47;;;1.70;;
30052;SDS011;17074;52.478;13.534;2022-09-17T06:41:42;6.05;;;1.73;;
30052;SDS011;17074;52.478;13.534;2022-09-17T06:44:08;6.70;;;1.92;;
30052;SDS011;17074;52.478;13.534;2022-09-17T06:46:34;7.20;;;1.98;;
30052;SDS011;17074;52.478;13.534;2022-09-17T06:49:02;10.65;;;2.10;;
30052;SDS011;17074;52.478;13.534;2022-09-17T06:51:28;8.50;;;2.05;;
30052;SDS011;17074;52.478;13.534;2022-09-17T06:53:53;9.65;;;2.00;;
30052;SDS011;17074;52.478;13.534;2022-09-17T06:56:19;6.47;;;1.80;;
30052;SDS011;17074;52.478;13.534;2022-09-17T06:58:45;9.63;;;2.08;;
30052;SDS011;17074;52.478;13.534;2022-09-17T07:01:11;6.60;;;1.85;;
30052;SDS011;17074;52.478;13.534;2022-09-17T07:03:37;10.07;;;2.42;;
30052;SDS011;17074;52.478;13.534;2022-09-17T07:06:03;5.55;;;1.90;;
30052;SDS011;17074;52.478;13.534;2022-09-17T07:08:33;5.43;;;1.95;;
30052;SDS011;17074;52.478;13.534;2022-09-17T07:10:59;11.05;;;1.70;;
30052;SDS011;17074;52.478;13.534;2022-09-17T07:13:25;6.38;;;1.80;;
30052;SDS011;17074;52.478;13.534;2022-09-17T07:15:51;6.18;;;1.48;;
30052;SDS011;17074;52.478;13.534;2022-09-17T07:18:21;5.90;;;2.28;;
30052;SDS011;17074;52.478;13.534;2022-09-17T07:20:54;8.57;;;1.75;;
30052;SDS011;17074;52.478;13.534;2022-09-17T07:23:24;7.90;;;1.77;;
30052;SDS011;17074;52.478;13.534;2022-09-17T07:26:02;8.60;;;1.77;;
30052;SDS011;17074;52.478;13.534;2022-09-17T07:28:30;8.68;;;2.17;;
30052;SDS011;17074;52.478;13.534;2022-09-17T07:30:55;10.32;;;2.05;;
30052;SDS011;17074;52.478;13.534;2022-09-17T07:33:22;6.20;;;2.10;;
30052;SDS011;17074;52.478;13.534;2022-09-17T07:35:53;5.47;;;1.65;;
30052;SDS011;17074;52.478;13.534;2022-09-17T07:38:25;7.68;;;2.00;;
30052;SDS011;17074;52.478;13.534;2022-09-17T07:40:59;4.68;;;1.52;;
30052;SDS011;17074;52.478;13.534;2022-09-17T07:43:38;7.15;;;1.65;;
30052;SDS011;17074;52.478;13.534;2022-09-17T07:46:04;7.45;;;1.85;;
30052;SDS011;17074;52.478;13.534;2022-09-17T07:48:32;6.28;;;1.65;;
30052;SDS011;17074;52.478;13.534;2022-09-17T07:50:58;6.18;;;1.90;;
30052;SDS011;17074;52.478;13.534;2022-09-17T07:53:24;6.40;;;1.65;;
30052;SDS011;17074;52.478;13.534;2022-09-17T07:55:54;7.05;;;1.40;;
30052;SDS011;17074;52.478;13.534;2022-09-17T07:58:22;8.02;;;1.95;;
30052;SDS011;17074;52.478;13.534;2022-09-17T08:00:51;7.22;;;1.80;;
30052;SDS011;17074;52.478;13.534;2022-09-17T08:03:17;9.45;;;1.95;;
30052;SDS011;17074;52.478;13.534;2022-09-17T08:05:42;4.97;;;1.52;;
30052;SDS011;17074;52.478;13.534;2022-09-17T08:08:08;8.70;;;1.85;;
30052;SDS011;17074;52.478;13.534;2022-09-17T08:10:34;8.07;;;1.38;;
30052;SDS011;17074;52.478;13.534;2022-09-17T08:13:00;8.00;;;2.42;;
30052;SDS011;17074;52.478;13.534;2022-09-17T08:15:25;7.68;;;1.85;;
30052;SDS011;17074;52.478;13.534;2022-09-17T08:17:51;7.18;;;1.70;;
30052;SDS011;17074;52.478;13.534;2022-09-17T08:20:17;9.73;;;1.88;;
30052;SDS011;17074;52.478;13.534;2022-09-17T08:22:43;5.63;;;1.75;;
30052;SDS011;17074;52.478;13.534;2022-09-17T08:25:09;7.13;;;1.48;;
30052;SDS011;17074;52.478;13.534;2022-09-17T08:27:35;6.07;;;1.60;;
30052;SDS011;17074;52.478;13.534;2022-09-17T08:30:03;8.35;;;1.48;;
30052;SDS011;17074;52.478;13.534;2022-09-17T08:32:30;9.35;;;1.55;;
30052;SDS011;17074;52.478;13.534;2022-09-17T08:34:55;9.43;;;1.95;;
30052;SDS011;17074;52.478;13.534;2022-09-17T08:37:21;5.88;;;1.50;;
30052;SDS011;17074;52.478;13.534;2022-09-17T08:39:46;7.55;;;1.85;;
30052;SDS011;17074;52.478;13.534;2022-09-17T08:42:20;4.80;;;1.35;;
30052;SDS011;17074;52.478;13.534;2022-09-17T08:44:56;5.10;;;1.52;;
30052;SDS011;17074;52.478;13.534;2022-09-17T08:50:00;9.00;;;1.10;;
30052;SDS011;17074;52.478;13.534;2022-09-17T08:55:42;3.33;;;1.27;;
30052;SDS011;17074;52.478;13.534;2022-09-17T09:01:48;4.85;;;1.05;;
30052;SDS011;17074;52.478;13.534;2022-09-17T09:04:48;3.88;;;1.30;;
30052;SDS011;17074;52.478;13.534;2022-09-17T09:07:21;5.20;;;1.13;;
30052;SDS011;17074;52.478;13.534;2022-09-17T09:09:54;6.30;;;1.48;;
30052;SDS011;17074;52.478;13.534;2022-09-17T09:12:27;4.95;;;1.27;;
30052;SDS011;17074;52.478;13.534;2022-09-17T09:17:55;5.57;;;1.45;;
30052;SDS011;17074;52.478;13.534;2022-09-17T09:26:15;4.53;;;1.45;;
30052;SDS011;17074;52.478;13.534;2022-09-17T09:34:18;8.75;;;1.23;;
30052;SDS011;17074;52.478;13.534;2022-09-17T09:36:44;5.18;;;1.45;;
30052;SDS011;17074;52.478;13.534;2022-09-17T09:39:16;9.82;;;1.90;;
30052;SDS011;17074;52.478;13.534;2022-09-17T09:41:52;5.55;;;0.98;;
30052;SDS011;17074;52.478;13.534;2022-09-17T09:44:23;5.22;;;1.13;;
30052;SDS011;17074;52.478;13.534;2022-09-17T09:49:59;5.95;;;1.48;;
30052;SDS011;17074;52.478;13.534;2022-09-17T09:55:32;8.23;;;1.25;;
30052;SDS011;17074;52.478;13.534;2022-09-17T10:00:35;11.15;;;1.75;;
30052;SDS011;17074;52.478;13.534;2022-09-17T10:05:33;5.13;;;1.23;;
30052;SDS011;17074;52.478;13.534;2022-09-17T10:07:59;3.78;;;1.25;;
30052;SDS011;17074;52.478;13.534;2022-09-17T10:10:37;7.20;;;1.55;;
30052;SDS011;17074;52.478;13.534;2022-09-17T10:13:18;7.10;;;1.45;;
30052;SDS011;17074;52.478;13.534;2022-09-17T10:15:45;2.50;;;1.10;;
30052;SDS011;17074;52.478;13.534;2022-09-17T10:18:20;4.72;;;1.13;;
30052;SDS011;17074;52.478;13.534;2022-09-17T10:20:48;2.92;;;1.23;;
30052;SDS011;17074;52.478;13.534;2022-09-17T10:23:15;4.95;;;1.42;;
30052;SDS011;17074;52.478;13.534;2022-09-17T10:25:41;6.28;;;1.10;;
30052;SDS011;17074;52.478;13.534;2022-09-17T10:30:58;3.78;;;0.93;;
30052;SDS011;17074;52.478;13.534;2022-09-17T10:33:27;4.45;;;1.27;;
30052;SDS011;17074;52.478;13.534;2022-09-17T10:35:59;3.28;;;1.05;;
30052;SDS011;17074;52.478;13.534;2022-09-17T10:38:30;4.22;;;1.15;;
30052;SDS011;17074;52.478;13.534;2022-09-17T10:43:55;3.88;;;1.20;;
30052;SDS011;17074;52.478;13.534;2022-09-17T10:46:40;3.47;;;1.20;;
30052;SDS011;17074;52.478;13.534;2022-09-17T10:49:09;4.43;;;1.52;;
30052;SDS011;17074;52.478;13.534;2022-09-17T10:51:44;2.35;;;1.10;;
30052;SDS011;17074;52.478;13.534;2022-09-17T10:57:01;6.32;;;1.20;;
30052;SDS011;17074;52.478;13.534;2022-09-17T11:08:15;2.28;;;1.27;;
30052;SDS011;17074;52.478;13.534;2022-09-17T11:10:58;5.40;;;1.50;;
30052;SDS011;17074;52.478;13.534;2022-09-17T11:16:26;6.25;;;1.48;;
30052;SDS011;17074;52.478;13.534;2022-09-17T11:26:35;4.47;;;0.90;;
30052;SDS011;17074;52.478;13.534;2022-09-17T11:32:01;6.03;;;1.50;;
30052;SDS011;17074;52.478;13.534;2022-09-17T11:34:46;2.10;;;1.08;;
30052;SDS011;17074;52.478;13.534;2022-09-17T11:37:21;5.10;;;1.23;;
30052;SDS011;17074;52.478;13.534;2022-09-17T11:39:53;3.97;;;1.23;;
30052;SDS011;17074;52.478;13.534;2022-09-17T11:42:30;5.95;;;1.35;;
30052;SDS011;17074;52.478;13.534;2022-09-17T11:45:03;4.40;;;1.23;;
30052;SDS011;17074;52.478;13.534;2022-09-17T11:47:38;3.63;;;1.00;;
30052;SDS011;17074;52.478;13.534;2022-09-17T11:53:03;3.63;;;1.08;;
30052;SDS011;17074;52.478;13.534;2022-09-17T11:55:46;2.08;;;0.70;;
30052;SDS011;17074;52.478;13.534;2022-09-17T12:01:20;2.38;;;0.90;;
30052;SDS011;17074;52.478;13.534;2022-09-17T12:04:10;4.88;;;1.00;;
30052;SDS011;17074;52.478;13.534;2022-09-17T12:07:07;4.57;;;0.93;;
30052;SDS011;17074;52.478;13.534;2022-09-17T12:10:16;5.60;;;1.40;;
30052;SDS011;17074;52.478;13.534;2022-09-17T12:13:04;1.65;;;0.75;;
30052;SDS011;17074;52.478;13.534;2022-09-17T12:15:41;2.95;;;1.00;;
30052;SDS011;17074;52.478;13.534;2022-09-17T12:20:58;4.72;;;0.98;;
30052;SDS011;17074;52.478;13.534;2022-09-17T12:23:47;2.30;;;0.68;;
30052;SDS011;17074;52.478;13.534;2022-09-17T12:27:37;2.80;;;0.82;;
30052;SDS011;17074;52.478;13.534;2022-09-17T12:35:17;1.65;;;0.50;;
30052;SDS011;17074;52.478;13.534;2022-09-17T12:41:02;2.03;;;0.70;;
30052;SDS011;17074;52.478;13.534;2022-09-17T12:52:06;3.25;;;0.73;;
30052;SDS011;17074;52.478;13.534;2022-09-17T13:21:13;2.42;;;0.60;;
30052;SDS011;17074;52.478;13.534;2022-09-17T13:23:54;1.83;;;0.70;;
30052;SDS011;17074;52.478;13.534;2022-09-17T13:26:21;4.00;;;0.77;;
30052;SDS011;17074;52.478;13.534;2022-09-17T13:29:01;2.30;;;0.70;;
30052;SDS011;17074;52.478;13.534;2022-09-17T13:34:02;1.45;;;0.45;;
30052;SDS011;17074;52.478;13.534;2022-09-17T13:36:53;1.95;;;0.50;;
30052;SDS011;17074;52.478;13.534;2022-09-17T13:42:26;1.52;;;0.60;;
30052;SDS011;17074;52.478;13.534;2022-09-17T13:45:03;1.67;;;0.60;;
30052;SDS011;17074;52.478;13.534;2022-09-17T13:47:37;1.52;;;0.70;;
30052;SDS011;17074;52.478;13.534;2022-09-17T13:53:30;2.15;;;0.80;;
30052;SDS011;17074;52.478;13.534;2022-09-17T13:58:25;2.13;;;0.50;;
30052;SDS011;17074;52.478;13.534;2022-09-17T14:01:02;3.60;;;0.93;;
30052;SDS011;17074;52.478;13.534;2022-09-17T14:31:58;1.90;;;0.90;;
30052;SDS011;17074;52.478;13.534;2022-09-17T14:34:24;2.65;;;0.73;;
30052;SDS011;17074;52.478;13.534;2022-09-17T14:36:51;9.00;;;1.23;;
30052;SDS011;17074;52.478;13.534;2022-09-17T14:39:24;3.88;;;0.93;;
30052;SDS011;17074;52.478;13.534;2022-09-17T14:46:32;2.42;;;0.93;;
